Terminal Aerodrome Forecast
Issued by NWS Shreveport, LA

Home | Current Version | Previous Version | Text Only | Print | Product List | Glossary On
Versions: 1 2 3 4 5 6 7 8 9 10 11 12 13
000
FTUS44 KSHV 271732
TAFMLU
TAF
KMLU 271732Z 2718/2818 04009KT P6SM SCT050 SCT070 BKN250
     FM271900 01009KT P6SM BKN050 BKN070
     FM280000 36003KT P6SM FEW070 BKN200
     FM280500 00000KT P6SM SCT250
     FM281500 26005KT P6SM SKC=

USA.gov is the U.S. government's official web portal to all federal, state and local government web resources and services.